createdAt,value
2018-12-19T00:00:54.647Z,94.55
2018-12-19T00:01:54.454Z,94.02
2018-12-19T00:02:54.446Z,95.07
2018-12-19T00:03:54.443Z,95.07
2018-12-19T00:04:54.430Z,95.18
2018-12-19T00:05:54.415Z,95.07
2018-12-19T00:06:54.475Z,94.55
2018-12-19T00:07:54.393Z,94.97
2018-12-19T00:08:54.387Z,94.97
2018-12-19T00:09:54.373Z,94.87
2018-12-19T00:10:54.362Z,95.18
2018-12-19T00:11:54.351Z,94.97
2018-12-19T00:12:54.380Z,95.29
2018-12-19T00:13:54.330Z,94.23
2018-12-19T00:14:54.330Z,94.45
2018-12-19T00:15:54.307Z,94.48
2018-12-19T00:16:54.295Z,94.17
2018-12-19T00:17:54.287Z,94.70
2018-12-19T00:18:54.312Z,95.06
2018-12-19T00:19:54.267Z,95.01
2018-12-19T00:20:54.259Z,95.01
2018-12-19T00:21:54.248Z,94.97
2018-12-19T00:22:54.233Z,95.23
2018-12-19T00:23:54.223Z,94.81
2018-12-19T00:24:54.302Z,94.91
2018-12-19T00:26:04.795Z,95.23
2018-12-19T00:26:54.192Z,94.59
2018-12-19T00:27:54.784Z,94.81
2018-12-19T00:28:54.175Z,94.91
2018-12-19T00:29:54.161Z,94.81
2018-12-19T00:30:54.197Z,94.59
2018-12-19T00:31:54.148Z,94.81
2018-12-19T00:32:54.134Z,94.81
2018-12-19T00:33:54.132Z,95.01
2018-12-19T00:34:54.108Z,95.01
2018-12-19T00:35:54.095Z,94.81
2018-12-19T00:36:54.127Z,95.01
2018-12-19T00:37:54.084Z,94.81
2018-12-19T00:38:54.070Z,93.96
2018-12-19T00:39:54.061Z,94.91
2018-12-19T00:40:54.044Z,94.81
2018-12-19T00:41:54.040Z,95.01
2018-12-19T00:42:54.059Z,94.70
2018-12-19T00:43:54.011Z,94.81
2018-12-19T00:44:54.007Z,94.70
2018-12-19T00:45:54.002Z,94.27
2018-12-19T00:46:53.989Z,94.17
2018-12-19T00:47:53.978Z,94.27
2018-12-19T00:48:54.011Z,94.02
2018-12-19T00:49:53.949Z,94.34
2018-12-19T00:50:53.947Z,94.27
2018-12-19T00:51:53.941Z,94.23
2018-12-19T00:52:53.920Z,94.59
2018-12-19T00:53:53.906Z,94.34
2018-12-19T00:54:53.944Z,94.27
2018-12-19T00:55:53.885Z,94.38
2018-12-19T00:57:03.909Z,94.17
2018-12-19T00:57:53.869Z,94.17
2018-12-19T00:58:53.860Z,94.27
2018-12-19T00:59:53.846Z,94.27
2018-12-19T01:00:53.945Z,94.45
2018-12-19T01:01:53.828Z,94.38
2018-12-19T01:02:53.816Z,94.23
2018-12-19T01:03:53.815Z,94.23
2018-12-19T01:04:53.796Z,93.38
2018-12-19T01:05:53.786Z,93.74
2018-12-19T01:06:53.811Z,93.64
2018-12-19T01:07:53.763Z,93.64
2018-12-19T01:08:53.762Z,94.06
2018-12-19T01:09:53.740Z,93.26
2018-12-19T01:10:53.729Z,93.96
2018-12-19T01:11:53.718Z,93.85
2018-12-19T01:12:53.743Z,94.06
2018-12-19T01:13:53.700Z,93.74
2018-12-19T01:14:53.705Z,94.00
2018-12-19T01:15:53.682Z,93.85
2018-12-19T01:16:53.666Z,94.27
2018-12-19T01:17:53.660Z,94.70
2018-12-19T01:18:53.683Z,94.38
2018-12-19T01:19:53.637Z,94.74
2018-12-19T01:20:53.633Z,94.81
2018-12-19T01:21:53.621Z,94.42
2018-12-19T01:22:53.608Z,94.74
2018-12-19T01:23:53.598Z,94.32
2018-12-19T01:24:53.760Z,94.53
2018-12-19T01:25:53.577Z,94.21
2018-12-19T01:26:53.562Z,94.64
2018-12-19T01:28:04.114Z,94.57
2018-12-19T01:28:53.542Z,94.78
2018-12-19T01:29:53.531Z,95.00
2018-12-19T01:30:53.561Z,95.10
2018-12-19T01:31:53.514Z,94.89
2018-12-19T01:32:53.506Z,95.00
2018-12-19T01:33:53.525Z,95.10
2018-12-19T01:34:53.488Z,94.72
2018-12-19T01:35:53.467Z,95.21
2018-12-19T01:36:53.492Z,95.14
2018-12-19T01:37:53.454Z,95.25
2018-12-19T01:38:53.436Z,95.57
2018-12-19T01:39:53.432Z,95.46
2018-12-19T01:40:53.420Z,95.04
2018-12-19T01:41:53.407Z,95.18
2018-12-19T01:42:53.432Z,95.67
2018-12-19T01:43:53.391Z,96.14
2018-12-19T01:44:53.377Z,95.99
2018-12-19T01:45:53.376Z,95.72
2018-12-19T01:46:53.352Z,95.67
2018-12-19T01:47:53.341Z,94.93
2018-12-19T01:48:53.399Z,95.46
2018-12-19T01:49:53.321Z,95.29
2018-12-19T01:50:53.313Z,95.46
2018-12-19T01:51:53.312Z,95.46
2018-12-19T01:52:53.298Z,95.72
2018-12-19T01:53:53.284Z,96.03
2018-12-19T01:54:53.348Z,96.03
2018-12-19T01:55:53.264Z,96.25
2018-12-19T01:56:53.252Z,96.25
2018-12-19T01:57:53.247Z,96.25
2018-12-19T01:59:03.639Z,96.14
2018-12-19T01:59:53.222Z,95.78
2018-12-19T02:00:53.251Z,95.50
2018-12-19T02:01:53.202Z,95.40
2018-12-19T02:02:53.189Z,95.72
2018-12-19T02:03:53.188Z,96.03
2018-12-19T02:04:53.168Z,95.93
2018-12-19T02:05:53.161Z,95.82
2018-12-19T02:06:53.178Z,95.82
2018-12-19T02:07:53.139Z,96.14
2018-12-19T02:08:53.127Z,95.72
2018-12-19T02:09:53.113Z,95.93
2018-12-19T02:10:53.107Z,96.14
2018-12-19T02:11:53.099Z,95.93
2018-12-19T02:12:53.265Z,96.03
2018-12-19T02:13:53.074Z,96.25
2018-12-19T02:14:53.063Z,95.72
2018-12-19T02:15:53.059Z,95.93
2018-12-19T02:16:53.048Z,96.14
2018-12-19T02:17:53.033Z,96.25
2018-12-19T02:18:53.064Z,95.93
2018-12-19T02:19:53.009Z,95.57
2018-12-19T02:20:53.000Z,95.61
2018-12-19T02:21:52.990Z,95.93
2018-12-19T02:22:52.981Z,95.93
2018-12-19T02:23:52.970Z,96.03
2018-12-19T02:24:53.136Z,95.67
2018-12-19T02:25:52.948Z,95.50
2018-12-19T02:26:52.943Z,95.61
2018-12-19T02:27:52.931Z,95.50
2018-12-19T02:28:52.916Z,95.50
2018-12-19T02:30:03.367Z,95.61
2018-12-19T02:30:52.902Z,95.08
2018-12-19T02:31:52.888Z,95.18
2018-12-19T02:32:52.876Z,95.50
2018-12-19T02:33:52.868Z,95.18
2018-12-19T02:34:52.866Z,95.18
2018-12-19T02:35:52.890Z,95.18
2018-12-19T02:36:52.840Z,94.98
2018-12-19T02:37:52.828Z,94.98
2018-12-19T02:38:52.820Z,95.18
2018-12-19T02:39:52.806Z,95.18
2018-12-19T02:40:52.795Z,95.61
2018-12-19T02:41:52.878Z,95.18
2018-12-19T02:42:52.782Z,95.08
2018-12-19T02:43:52.763Z,94.87
2018-12-19T02:44:52.757Z,95.08
2018-12-19T02:45:52.744Z,95.54
2018-12-19T02:46:52.735Z,95.40
2018-12-19T02:47:52.879Z,94.98
2018-12-19T02:48:52.711Z,95.08
2018-12-19T02:49:52.707Z,95.18
2018-12-19T02:50:52.696Z,95.12
2018-12-19T02:51:52.680Z,95.29
2018-12-19T02:52:52.670Z,94.91
2018-12-19T02:53:52.707Z,94.70
2018-12-19T02:54:52.654Z,95.12
2018-12-19T02:55:52.645Z,95.23
2018-12-19T02:56:52.634Z,95.34
2018-12-19T02:57:52.621Z,94.76
2018-12-19T02:58:52.615Z,95.18
2018-12-19T02:59:52.643Z,95.08
2018-12-19T03:01:03.792Z,94.65
2018-12-19T03:01:52.576Z,94.34
2018-12-19T03:02:52.570Z,94.59
2018-12-19T03:03:52.556Z,94.38
2018-12-19T03:04:52.555Z,94.38
2018-12-19T03:05:52.576Z,94.49
2018-12-19T03:06:52.524Z,95.12
2018-12-19T03:07:52.520Z,95.02
2018-12-19T03:08:52.513Z,94.64
2018-12-19T03:09:52.492Z,94.85
2018-12-19T03:10:52.483Z,95.06
2018-12-19T03:11:52.492Z,95.06
2018-12-19T03:12:52.464Z,95.59
2018-12-19T03:13:52.455Z,95.17
2018-12-19T03:14:52.440Z,95.27
2018-12-19T03:15:52.443Z,95.74
2018-12-19T03:16:52.423Z,95.80
2018-12-19T03:17:52.479Z,96.12
2018-12-19T03:18:52.409Z,95.70
2018-12-19T03:19:52.400Z,96.23
2018-12-19T03:20:52.382Z,96.06
2018-12-19T03:21:52.369Z,96.06
2018-12-19T03:22:52.370Z,96.06
2018-12-19T03:23:52.386Z,95.74
2018-12-19T03:24:52.337Z,96.16
2018-12-19T03:25:52.330Z,96.16
2018-12-19T03:26:52.316Z,96.06
2018-12-19T03:27:52.315Z,96.20
2018-12-19T03:28:52.299Z,96.31
2018-12-19T03:29:52.317Z,96.06
2018-12-19T03:30:53.445Z,95.84
2018-12-19T03:32:02.414Z,95.84
2018-12-19T03:32:52.268Z,96.06
2018-12-19T03:33:52.246Z,95.95
2018-12-19T03:34:52.234Z,96.27
2018-12-19T03:35:52.535Z,96.27
2018-12-19T03:36:52.290Z,96.16
2018-12-19T03:37:52.213Z,96.27
2018-12-19T03:38:52.190Z,96.16
2018-12-19T03:39:52.183Z,95.95
2018-12-19T03:40:52.176Z,95.91
2018-12-19T03:41:52.260Z,95.80
2018-12-19T03:42:52.155Z,96.12
2018-12-19T03:43:52.138Z,95.91
2018-12-19T03:44:52.134Z,95.70
2018-12-19T03:45:52.120Z,95.38
2018-12-19T03:46:52.113Z,94.95
2018-12-19T03:47:52.138Z,94.95
2018-12-19T03:48:52.098Z,95.17
2018-12-19T03:49:52.084Z,94.25
2018-12-19T03:50:52.073Z,94.32
2018-12-19T03:51:52.063Z,94.85
2018-12-19T03:52:52.044Z,95.21
2018-12-19T03:53:52.073Z,95.31
2018-12-19T03:54:52.032Z,95.21
2018-12-19T03:55:52.018Z,95.10
2018-12-19T03:56:52.017Z,95.10
2018-12-19T03:57:52.008Z,94.36
2018-12-19T03:58:51.993Z,94.68
2018-12-19T03:59:52.016Z,94.68
2018-12-19T04:00:51.967Z,95.00
2018-12-19T04:01:51.955Z,93.93
2018-12-19T04:03:02.434Z,93.62
2018-12-19T04:03:51.931Z,94.25
2018-12-19T04:04:51.920Z,94.46
2018-12-19T04:05:51.950Z,94.19
2018-12-19T04:06:51.908Z,94.04
2018-12-19T04:07:51.900Z,94.51
2018-12-19T04:08:51.885Z,94.09
2018-12-19T04:09:57.690Z,94.09
2018-12-19T04:10:52.904Z,94.29
2018-12-19T04:11:51.861Z,94.62
2018-12-19T04:12:51.845Z,94.93
2018-12-19T04:13:51.832Z,95.04
2018-12-19T04:14:51.820Z,94.72
2018-12-19T04:15:51.811Z,94.29
2018-12-19T04:16:51.845Z,94.19
2018-12-19T04:17:51.798Z,94.29
2018-12-19T04:18:51.778Z,94.72
2018-12-19T04:19:51.772Z,95.15
2018-12-19T04:20:51.757Z,94.65
2018-12-19T04:21:51.751Z,94.76
2018-12-19T04:22:51.777Z,94.65
2018-12-19T04:23:51.733Z,94.76
2018-12-19T04:24:51.720Z,94.87
2018-12-19T04:25:51.706Z,94.76
2018-12-19T04:26:51.692Z,95.19
2018-12-19T04:27:51.690Z,95.40
2018-12-19T04:28:51.714Z,95.40
2018-12-19T04:29:51.672Z,95.57
2018-12-19T04:30:51.670Z,95.19
2018-12-19T04:31:51.648Z,94.62
2018-12-19T04:32:51.635Z,94.45
2018-12-19T04:34:02.430Z,94.65
2018-12-19T04:34:51.611Z,94.87
2018-12-19T04:35:51.604Z,94.65
2018-12-19T04:36:51.601Z,94.87
2018-12-19T04:37:51.579Z,95.02
2018-12-19T04:38:51.581Z,94.55
2018-12-19T04:39:51.601Z,94.91
2018-12-19T04:40:51.548Z,94.91
2018-12-19T04:41:51.553Z,94.70
2018-12-19T04:42:51.937Z,94.81
2018-12-19T04:43:51.525Z,94.59
2018-12-19T04:44:51.513Z,94.49
2018-12-19T04:45:51.532Z,95.12
2018-12-19T04:46:51.500Z,95.23
2018-12-19T04:47:51.482Z,95.28
2018-12-19T04:48:51.471Z,95.34
2018-12-19T04:49:51.456Z,95.06
2018-12-19T04:50:51.452Z,95.34
2018-12-19T04:51:51.918Z,95.76
2018-12-19T04:52:51.430Z,95.65
2018-12-19T04:53:51.418Z,95.55
2018-12-19T04:54:51.407Z,95.76
2018-12-19T04:55:51.401Z,95.12
2018-12-19T04:56:51.384Z,95.44
2018-12-19T04:57:51.597Z,95.23
2018-12-19T04:58:51.374Z,94.70
2018-12-19T04:59:51.367Z,94.81
2018-12-19T05:00:58.329Z,94.70
2018-12-19T05:01:51.333Z,94.65
2018-12-19T05:02:51.324Z,94.70
2018-12-19T05:03:51.420Z,94.81
2018-12-19T05:04:51.306Z,94.91
2018-12-19T05:05:51.299Z,94.70
2018-12-19T05:06:51.289Z,95.02
2018-12-19T05:07:51.277Z,94.49
2018-12-19T05:08:51.274Z,94.34
2018-12-19T05:09:51.292Z,94.81
2018-12-19T05:10:51.243Z,94.70
2018-12-19T05:11:51.232Z,95.02
2018-12-19T05:12:51.228Z,94.59
2018-12-19T05:13:51.227Z,94.38
2018-12-19T05:14:51.205Z,95.12
2018-12-19T05:15:51.226Z,95.06
2018-12-19T05:16:51.177Z,94.95
2018-12-19T05:17:51.171Z,94.53
2018-12-19T05:18:51.190Z,94.74
2018-12-19T05:19:51.157Z,94.53
2018-12-19T05:20:51.138Z,94.59
2018-12-19T05:21:51.163Z,95.23
2018-12-19T05:22:51.116Z,95.34
2018-12-19T05:23:51.107Z,94.59
2018-12-19T05:24:51.096Z,94.70
2018-12-19T05:25:51.105Z,94.81
2018-12-19T05:26:51.076Z,94.59
2018-12-19T05:27:51.238Z,94.59
2018-12-19T05:28:51.053Z,94.70
2018-12-19T05:29:51.053Z,94.70
2018-12-19T05:30:51.034Z,94.70
2018-12-19T05:32:02.106Z,93.59
2018-12-19T05:32:51.018Z,94.23
2018-12-19T05:33:51.190Z,94.45
2018-12-19T05:34:50.992Z,94.76
2018-12-19T05:35:50.982Z,94.27
2018-12-19T05:36:50.981Z,93.96
2018-12-19T05:37:50.969Z,95.23
2018-12-19T05:38:50.951Z,94.70
2018-12-19T05:39:50.982Z,94.70
2018-12-19T05:40:50.940Z,94.98
2018-12-19T05:41:50.926Z,94.87
2018-12-19T05:42:50.912Z,94.23
2018-12-19T05:43:50.899Z,94.23
2018-12-19T05:44:50.894Z,94.65
2018-12-19T05:45:50.913Z,94.91
2018-12-19T05:46:50.869Z,94.70
2018-12-19T05:47:50.863Z,94.87
2018-12-19T05:48:50.855Z,95.02
2018-12-19T05:49:50.841Z,94.98
2018-12-19T05:50:50.834Z,94.49
2018-12-19T05:51:50.868Z,95.34
2018-12-19T05:52:50.811Z,95.34
2018-12-19T05:53:50.799Z,95.44
2018-12-19T05:54:50.792Z,95.34
2018-12-19T05:55:50.798Z,95.23
2018-12-19T05:56:50.774Z,94.91
2018-12-19T05:57:50.842Z,95.12
2018-12-19T05:58:50.746Z,95.76
2018-12-19T05:59:50.739Z,94.91
2018-12-19T06:00:50.725Z,95.44
2018-12-19T06:01:50.715Z,95.12
2018-12-19T06:03:01.446Z,95.65
2018-12-19T06:03:50.696Z,95.55
2018-12-19T06:04:50.683Z,95.44
2018-12-19T06:05:50.673Z,94.91
2018-12-19T06:06:50.669Z,95.76
2018-12-19T06:07:50.661Z,95.34
2018-12-19T06:08:50.691Z,95.65
2018-12-19T06:09:50.638Z,95.76
2018-12-19T06:10:50.623Z,95.44
2018-12-19T06:11:50.609Z,95.40
2018-12-19T06:12:50.599Z,95.51
2018-12-19T06:13:50.592Z,95.40
2018-12-19T06:14:50.640Z,95.29
2018-12-19T06:15:50.574Z,95.40
2018-12-19T06:16:50.563Z,95.61
2018-12-19T06:17:50.551Z,95.29
2018-12-19T06:18:50.537Z,95.19
2018-12-19T06:19:50.533Z,95.08
2018-12-19T06:20:50.568Z,95.61
2018-12-19T06:21:50.510Z,95.40
2018-12-19T06:22:50.500Z,95.51
2018-12-19T06:23:50.515Z,94.55
2018-12-19T06:24:50.481Z,95.19
2018-12-19T06:25:50.467Z,95.19
2018-12-19T06:26:50.506Z,95.40
2018-12-19T06:27:50.448Z,95.51
2018-12-19T06:28:50.467Z,94.55
2018-12-19T06:29:50.441Z,94.72
2018-12-19T06:30:50.413Z,94.81
2018-12-19T06:31:50.407Z,94.98
2018-12-19T06:32:50.449Z,94.87
2018-12-19T06:34:00.511Z,94.65
2018-12-19T06:34:50.371Z,94.76
2018-12-19T06:35:50.391Z,94.81
2018-12-19T06:36:50.358Z,94.91
2018-12-19T06:37:50.344Z,94.91
2018-12-19T06:38:50.369Z,95.34
2018-12-19T06:39:50.328Z,95.34
2018-12-19T06:40:50.311Z,95.34
2018-12-19T06:41:50.305Z,95.44
2018-12-19T06:42:50.296Z,95.65
2018-12-19T06:43:50.278Z,95.76
2018-12-19T06:44:50.315Z,95.76
2018-12-19T06:45:50.271Z,95.34
2018-12-19T06:46:50.250Z,95.76
2018-12-19T06:47:50.255Z,95.76
2018-12-19T06:48:50.232Z,95.87
2018-12-19T06:49:50.218Z,95.76
2018-12-19T06:50:50.268Z,95.12
2018-12-19T06:51:50.203Z,95.23
2018-12-19T06:52:50.185Z,95.55
2018-12-19T06:53:50.252Z,95.65
2018-12-19T06:54:50.176Z,95.29
2018-12-19T06:55:50.177Z,94.98
2018-12-19T06:56:50.321Z,94.87
2018-12-19T06:57:50.135Z,94.81
2018-12-19T06:58:50.129Z,95.02
2018-12-19T06:59:50.145Z,95.19
2018-12-19T07:00:50.109Z,95.29
2018-12-19T07:01:50.093Z,94.65
2018-12-19T07:02:50.136Z,94.34
2018-12-19T07:03:50.073Z,94.87
2018-12-19T07:05:00.375Z,94.65
2018-12-19T07:05:50.050Z,94.02
2018-12-19T07:06:50.040Z,93.70
2018-12-19T07:07:50.033Z,94.23
2018-12-19T07:08:50.059Z,93.59
2018-12-19T07:09:50.066Z,93.80
2018-12-19T07:10:49.999Z,94.23
2018-12-19T07:11:49.989Z,94.45
2018-12-19T07:12:49.980Z,94.76
2018-12-19T07:13:49.999Z,94.34
2018-12-19T07:14:50.130Z,94.45
2018-12-19T07:15:49.945Z,94.45
2018-12-19T07:16:49.941Z,94.02
2018-12-19T07:17:49.932Z,94.55
2018-12-19T07:18:49.930Z,94.34
2018-12-19T07:19:49.907Z,94.45
2018-12-19T07:20:49.932Z,94.12
2018-12-19T07:21:49.884Z,93.38
2018-12-19T07:22:49.880Z,93.49
2018-12-19T07:23:49.872Z,93.91
2018-12-19T07:24:49.925Z,93.70
2018-12-19T07:25:49.867Z,94.02
2018-12-19T07:26:49.870Z,94.06
2018-12-19T07:27:49.847Z,94.49
2018-12-19T07:28:50.430Z,95.12
2018-12-19T07:29:49.802Z,94.70
2018-12-19T07:30:49.796Z,94.91
2018-12-19T07:31:49.835Z,94.70
2018-12-19T07:32:49.832Z,94.91
2018-12-19T07:33:49.763Z,95.02
2018-12-19T07:34:49.751Z,94.38
2018-12-19T07:36:00.049Z,94.38
2018-12-19T07:36:49.735Z,94.17
2018-12-19T07:37:49.718Z,94.06
2018-12-19T07:38:49.749Z,94.06
2018-12-19T07:39:49.704Z,94.59
2018-12-19T07:40:49.690Z,94.49
2018-12-19T07:41:49.676Z,94.17
2018-12-19T07:42:49.692Z,94.45
2018-12-19T07:43:49.654Z,94.23
2018-12-19T07:44:49.682Z,94.45
2018-12-19T07:45:49.679Z,94.02
2018-12-19T07:46:49.626Z,94.02
2018-12-19T07:47:49.612Z,94.06
2018-12-19T07:48:49.611Z,93.96
2018-12-19T07:49:49.604Z,94.06
2018-12-19T07:50:49.625Z,94.59
2018-12-19T07:51:49.577Z,93.74
2018-12-19T07:52:49.560Z,94.17
2018-12-19T07:53:49.549Z,94.38
2018-12-19T07:54:49.540Z,94.27
2018-12-19T07:55:49.549Z,94.17
2018-12-19T07:56:49.562Z,94.27
2018-12-19T07:57:49.505Z,94.38
2018-12-19T07:58:49.506Z,94.06
2018-12-19T07:59:49.483Z,94.27
2018-12-19T08:00:49.481Z,94.06
2018-12-19T08:01:49.480Z,94.06
2018-12-19T08:02:49.551Z,94.17
2018-12-19T08:03:49.446Z,94.81
2018-12-19T08:04:49.451Z,94.49
2018-12-19T08:05:49.423Z,94.59
2018-12-19T08:07:01.103Z,93.63
2018-12-19T08:07:49.410Z,94.70
2018-12-19T08:08:49.473Z,94.70
2018-12-19T08:09:49.387Z,95.23
2018-12-19T08:10:52.277Z,94.81
2018-12-19T08:11:49.377Z,93.96
2018-12-19T08:12:49.364Z,94.02
2018-12-19T08:13:49.342Z,94.06
2018-12-19T08:14:49.361Z,94.02
2018-12-19T08:15:49.321Z,94.38
2018-12-19T08:16:49.334Z,94.27
2018-12-19T08:17:49.303Z,94.27
2018-12-19T08:18:49.303Z,94.27
2018-12-19T08:19:49.282Z,94.38
2018-12-19T08:20:49.447Z,94.49
2018-12-19T08:21:49.264Z,94.49
2018-12-19T08:22:49.252Z,93.74
2018-12-19T08:23:49.244Z,94.17
2018-12-19T08:24:49.227Z,94.81
2018-12-19T08:25:49.221Z,94.17
2018-12-19T08:26:49.386Z,94.38
2018-12-19T08:27:49.207Z,94.70
2018-12-19T08:28:49.188Z,94.81
2018-12-19T08:29:49.178Z,94.27
2018-12-19T08:30:49.165Z,94.27
2018-12-19T08:31:49.162Z,94.49
2018-12-19T08:32:49.243Z,93.59
2018-12-19T08:33:49.144Z,93.91
2018-12-19T08:34:49.175Z,94.02
2018-12-19T08:35:56.112Z,93.80
2018-12-19T08:36:49.113Z,93.91
2018-12-19T08:37:49.095Z,94.02
2018-12-19T08:38:49.098Z,93.80
2018-12-19T08:39:49.079Z,93.70
2018-12-19T08:40:49.068Z,93.49
2018-12-19T08:41:49.049Z,93.59
2018-12-19T08:42:49.044Z,93.59
2018-12-19T08:43:49.050Z,93.55
2018-12-19T08:44:49.064Z,92.91
2018-12-19T08:45:49.012Z,92.11
2018-12-19T08:46:49.002Z,92.21
2018-12-19T08:47:48.991Z,92.74
2018-12-19T08:48:48.982Z,92.96
2018-12-19T08:49:48.980Z,92.53
2018-12-19T08:50:48.991Z,92.43
2018-12-19T08:51:48.951Z,93.00
2018-12-19T08:52:48.936Z,93.42
2018-12-19T08:53:48.930Z,93.27
2018-12-19T08:54:48.919Z,93.17
2018-12-19T08:55:48.905Z,92.85
2018-12-19T08:56:48.931Z,92.43
2018-12-19T08:57:48.887Z,92.53
2018-12-19T08:58:48.874Z,92.17
2018-12-19T08:59:48.860Z,92.00
2018-12-19T09:00:48.858Z,92.00
2018-12-19T09:01:48.841Z,92.00
2018-12-19T09:02:48.875Z,91.85
2018-12-19T09:03:48.821Z,92.70
2018-12-19T09:04:48.814Z,92.00
2018-12-19T09:05:48.797Z,91.85
2018-12-19T09:07:02.063Z,92.38
2018-12-19T09:07:48.788Z,91.53
2018-12-19T09:08:48.892Z,91.75
2018-12-19T09:09:50.436Z,92.07
2018-12-19T09:10:48.801Z,92.07
2018-12-19T09:11:50.086Z,91.05
2018-12-19T09:12:48.727Z,91.32
2018-12-19T09:13:48.715Z,92.38
2018-12-19T09:14:48.746Z,92.17
2018-12-19T09:15:48.715Z,91.64
2018-12-19T09:16:48.710Z,91.85
2018-12-19T09:17:48.688Z,91.58
2018-12-19T09:18:48.667Z,91.79
2018-12-19T09:19:48.764Z,92.17
2018-12-19T09:20:49.125Z,92.11
2018-12-19T09:21:48.634Z,91.89
2018-12-19T09:22:48.627Z,92.32
2018-12-19T09:23:48.649Z,92.21
2018-12-19T09:24:48.611Z,91.85
2018-12-19T09:25:48.617Z,91.96
2018-12-19T09:26:48.641Z,92.17
2018-12-19T09:27:48.587Z,91.85
2018-12-19T09:28:48.560Z,91.75
2018-12-19T09:29:48.652Z,91.64
2018-12-19T09:30:48.543Z,91.53
2018-12-19T09:31:48.581Z,91.75
2018-12-19T09:32:48.590Z,91.64
2018-12-19T09:33:48.505Z,91.43
2018-12-19T09:34:48.495Z,91.22
2018-12-19T09:35:48.484Z,91.53
2018-12-19T09:36:48.482Z,91.00
2018-12-19T09:37:59.538Z,91.25
2018-12-19T09:38:48.454Z,90.90
2018-12-19T09:39:48.991Z,91.22
2018-12-19T09:40:48.430Z,91.25
2018-12-19T09:41:48.429Z,91.58
2018-12-19T09:42:48.422Z,91.58
2018-12-19T09:43:48.539Z,91.32
2018-12-19T09:44:48.460Z,91.25
2018-12-19T09:45:48.412Z,91.47
2018-12-19T09:46:48.381Z,91.47
2018-12-19T09:47:48.355Z,91.36
2018-12-19T09:48:48.371Z,90.88
2018-12-19T09:49:48.373Z,91.61
2018-12-19T09:50:48.353Z,91.83
2018-12-19T09:51:48.312Z,91.51
2018-12-19T09:52:48.309Z,91.83
2018-12-19T09:53:48.312Z,92.14
2018-12-19T09:54:48.294Z,91.94
2018-12-19T09:55:48.320Z,92.47
2018-12-19T09:56:48.267Z,91.58
2018-12-19T09:57:48.254Z,92.04
2018-12-19T09:58:48.245Z,91.94
2018-12-19T09:59:48.249Z,91.72
2018-12-19T10:00:48.218Z,91.94
2018-12-19T10:01:48.251Z,91.72
2018-12-19T10:02:49.402Z,91.51
2018-12-19T10:03:48.195Z,91.83
2018-12-19T10:04:48.188Z,91.83
2018-12-19T10:05:48.180Z,91.72
2018-12-19T10:06:48.161Z,91.72
2018-12-19T10:07:48.237Z,91.83
2018-12-19T10:08:59.098Z,91.66
2018-12-19T10:09:48.544Z,91.41
2018-12-19T10:10:48.129Z,92.14
2018-12-19T10:11:48.108Z,91.83
2018-12-19T10:12:48.092Z,92.08
2018-12-19T10:13:48.134Z,92.08
2018-12-19T10:14:48.072Z,92.08
2018-12-19T10:15:48.084Z,91.87
2018-12-19T10:16:48.078Z,92.30
2018-12-19T10:17:48.055Z,92.08
2018-12-19T10:18:48.044Z,91.83
2018-12-19T10:19:48.078Z,92.08
2018-12-19T10:20:48.027Z,92.08
2018-12-19T10:21:48.000Z,91.97
2018-12-19T10:22:48.529Z,92.40
2018-12-19T10:23:47.985Z,92.08
2018-12-19T10:24:47.968Z,91.83
2018-12-19T10:25:48.137Z,92.36
2018-12-19T10:26:47.952Z,92.25
2018-12-19T10:27:47.945Z,92.47
2018-12-19T10:28:47.927Z,92.04
2018-12-19T10:29:47.929Z,91.72
2018-12-19T10:30:47.915Z,91.89
2018-12-19T10:31:48.054Z,91.83
2018-12-19T10:32:47.885Z,91.94
2018-12-19T10:33:47.894Z,91.61
2018-12-19T10:34:47.884Z,91.94
2018-12-19T10:35:47.858Z,92.25
2018-12-19T10:36:47.845Z,92.19
2018-12-19T10:37:47.881Z,91.83
2018-12-19T10:38:47.823Z,91.51
2018-12-19T10:39:59.037Z,91.94
2018-12-19T10:40:47.810Z,92.25
2018-12-19T10:41:54.791Z,91.72
2018-12-19T10:42:47.789Z,91.72
2018-12-19T10:43:47.817Z,91.83
2018-12-19T10:44:47.769Z,91.72
2018-12-19T10:45:47.756Z,91.72
2018-12-19T10:46:47.752Z,91.83
2018-12-19T10:47:47.736Z,91.51
2018-12-19T10:48:47.727Z,91.83
2018-12-19T10:49:47.765Z,92.14
2018-12-19T10:50:47.706Z,92.47
2018-12-19T10:51:47.696Z,91.83
2018-12-19T10:52:47.686Z,91.94
2018-12-19T10:53:47.682Z,91.94
2018-12-19T10:54:47.665Z,92.36
2018-12-19T10:55:47.684Z,92.04
2018-12-19T10:56:47.637Z,92.25
2018-12-19T10:57:47.627Z,91.83
2018-12-19T10:58:47.618Z,92.04
2018-12-19T10:59:47.614Z,92.04
2018-12-19T11:00:47.604Z,92.25
2018-12-19T11:01:47.628Z,91.83
2018-12-19T11:02:47.580Z,91.72
2018-12-19T11:03:47.575Z,91.94
2018-12-19T11:04:47.564Z,91.94
2018-12-19T11:05:54.188Z,92.14
2018-12-19T11:06:48.577Z,91.83
2018-12-19T11:07:47.536Z,92.43
2018-12-19T11:08:47.519Z,91.47
2018-12-19T11:09:47.508Z,91.79
2018-12-19T11:10:47.498Z,91.51
2018-12-19T11:11:47.488Z,91.61
2018-12-19T11:13:03.139Z,91.61
2018-12-19T11:13:47.470Z,91.94
2018-12-19T11:14:47.448Z,91.72
2018-12-19T11:15:47.450Z,91.58
2018-12-19T11:16:47.437Z,91.83
2018-12-19T11:17:47.421Z,91.79
2018-12-19T11:18:47.468Z,91.83
2018-12-19T11:19:47.423Z,91.51
2018-12-19T11:20:47.390Z,92.04
2018-12-19T11:21:47.381Z,91.61
2018-12-19T11:22:47.373Z,91.47
2018-12-19T11:23:47.382Z,91.72
2018-12-19T11:24:47.389Z,91.83
2018-12-19T11:25:47.416Z,91.83
2018-12-19T11:26:47.326Z,92.25
2018-12-19T11:27:47.313Z,92.04
2018-12-19T11:28:47.301Z,91.51
2018-12-19T11:29:47.293Z,91.83
2018-12-19T11:30:47.459Z,91.72
2018-12-19T11:31:47.276Z,91.47
2018-12-19T11:32:47.268Z,91.89
2018-12-19T11:33:47.258Z,91.83
2018-12-19T11:34:47.240Z,91.83
2018-12-19T11:35:47.232Z,91.51
2018-12-19T11:36:47.322Z,91.83
2018-12-19T11:37:47.218Z,91.61
2018-12-19T11:38:47.214Z,91.87
2018-12-19T11:39:47.196Z,91.66
2018-12-19T11:40:47.175Z,92.04
2018-12-19T11:41:47.169Z,91.94
2018-12-19T11:42:47.193Z,91.72
2018-12-19T11:43:57.365Z,92.89
2018-12-19T11:44:47.140Z,91.94
2018-12-19T11:45:47.129Z,92.25
2018-12-19T11:46:47.118Z,92.36
2018-12-19T11:47:47.107Z,91.83
2018-12-19T11:48:47.139Z,91.41
2018-12-19T11:49:47.083Z,92.25
2018-12-19T11:50:48.072Z,92.04
2018-12-19T11:51:47.068Z,92.04
2018-12-19T11:52:47.056Z,92.04
2018-12-19T11:53:47.041Z,91.72
2018-12-19T11:54:47.079Z,91.83
2018-12-19T11:55:47.017Z,92.04
2018-12-19T11:56:47.007Z,91.72
2018-12-19T11:57:47.008Z,91.61
2018-12-19T11:58:46.988Z,92.25
2018-12-19T11:59:46.978Z,92.04
2018-12-19T12:00:47.001Z,92.25
2018-12-19T12:01:46.956Z,92.25
2018-12-19T12:02:46.947Z,92.04
2018-12-19T12:03:46.946Z,91.83
2018-12-19T12:04:46.928Z,91.89
2018-12-19T12:05:46.916Z,91.79
2018-12-19T12:06:46.942Z,91.83
2018-12-19T12:07:46.899Z,92.21
2018-12-19T12:08:46.881Z,92.32
2018-12-19T12:09:46.870Z,91.89
2018-12-19T12:10:46.878Z,91.89
2018-12-19T12:11:46.854Z,91.79
2018-12-19T12:12:46.923Z,91.58
2018-12-19T12:13:46.843Z,91.41
2018-12-19T12:14:57.259Z,91.68
2018-12-19T12:15:46.811Z,92.00
2018-12-19T12:16:46.806Z,92.21
2018-12-19T12:17:46.790Z,91.68
2018-12-19T12:18:46.822Z,92.11
2018-12-19T12:19:48.084Z,91.68
2018-12-19T12:20:46.761Z,91.68
2018-12-19T12:21:46.746Z,91.79
2018-12-19T12:22:46.741Z,91.85
2018-12-19T12:23:47.362Z,92.00
2018-12-19T12:24:46.744Z,91.89
2018-12-19T12:25:46.706Z,91.68
2018-12-19T12:26:46.693Z,91.68
2018-12-19T12:27:46.688Z,91.68
2018-12-19T12:28:46.678Z,92.00
2018-12-19T12:29:46.671Z,91.47
2018-12-19T12:30:46.703Z,92.00
2018-12-19T12:31:46.641Z,91.68
2018-12-19T12:32:46.630Z,91.79
2018-12-19T12:33:46.624Z,91.79
2018-12-19T12:34:46.615Z,91.58
2018-12-19T12:35:46.598Z,92.00
2018-12-19T12:36:46.635Z,91.79
2018-12-19T12:37:46.582Z,91.68
2018-12-19T12:38:46.577Z,91.68
2018-12-19T12:39:46.559Z,91.68
2018-12-19T12:40:46.549Z,91.58
2018-12-19T12:41:52.169Z,91.58
2018-12-19T12:42:47.564Z,91.96
2018-12-19T12:43:46.524Z,92.17
2018-12-19T12:44:46.521Z,91.85
2018-12-19T12:45:57.203Z,92.43
2018-12-19T12:46:46.491Z,92.28
2018-12-19T12:47:46.479Z,92.21
2018-12-19T12:48:46.500Z,92.38
2018-12-19T12:49:46.455Z,91.47
2018-12-19T12:50:46.451Z,92.00
2018-12-19T12:51:46.432Z,92.00
2018-12-19T12:52:46.425Z,91.85